Time,TemperatureF,DewpointF,PressureIn,WindDirection,WindDirectionDegrees,WindSpeedMPH,WindSpeedGustMPH,Humidity,HourlyPrecipIn,Conditions,Clouds,dailyrainin,SolarRadiationWatts/m^2,SoftwareType,DateUTC
2013-05-18 00:03:00,65.0,60.0,29.88,ESE,117,0.0,0.0,85,0.00,,,0.00,0,weatherlink.com 1.10,2013-05-18 05:03:00,
2013-05-18 00:18:00,64.9,60.0,29.88,ESE,117,0.0,0.0,85,0.00,,,0.00,0,weatherlink.com 1.10,2013-05-18 05:18:00,
2013-05-18 00:33:00,64.5,60.0,29.89,ESE,117,0.0,1.0,86,0.00,,,0.00,0,weatherlink.com 1.10,2013-05-18 05:33:00,
2013-05-18 00:48:00,64.4,60.0,29.88,ESE,117,0.0,1.0,86,0.00,,,0.00,0,weatherlink.com 1.10,2013-05-18 05:48:00,
2013-05-18 01:03:00,64.3,60.0,29.88,ESE,117,0.0,2.0,87,0.00,,,0.00,0,weatherlink.com 1.10,2013-05-18 06:03:00,
2013-05-18 01:18:00,64.5,61.0,29.88,ESE,117,1.0,2.0,87,0.00,,,0.00,0,weatherlink.com 1.10,2013-05-18 06:18:00,
2013-05-18 01:33:00,64.4,61.0,29.87,ESE,117,0.0,1.0,87,0.00,,,0.00,0,weatherlink.com 1.10,2013-05-18 06:33:00,
2013-05-18 01:48:00,64.1,60.0,29.87,ESE,117,0.0,1.0,86,0.00,,,0.00,0,weatherlink.com 1.10,2013-05-18 06:48:00,
2013-05-18 02:03:00,63.6,60.0,29.86,ESE,117,0.0,1.0,87,0.00,,,0.00,0,weatherlink.com 1.10,2013-05-18 07:03:00,
2013-05-18 02:18:00,63.4,60.0,29.86,ESE,117,0.0,1.0,87,0.00,,,0.00,0,weatherlink.com 1.10,2013-05-18 07:18:00,
2013-05-18 02:33:00,63.0,59.0,29.86,ESE,117,0.0,0.0,88,0.00,,,0.00,0,weatherlink.com 1.10,2013-05-18 07:33:00,
2013-05-18 02:48:00,62.7,60.0,29.86,ESE,117,0.0,1.0,89,0.00,,,0.00,0,weatherlink.com 1.10,2013-05-18 07:48:00,
2013-05-18 03:04:00,62.7,60.0,29.86,ESE,117,0.0,0.0,90,0.00,,,0.00,0,weatherlink.com 1.10,2013-05-18 08:04:00,
2013-05-18 03:19:00,62.5,60.0,29.86,ESE,117,0.0,0.0,90,0.00,,,0.00,0,weatherlink.com 1.10,2013-05-18 08:19:00,
2013-05-18 03:34:00,62.4,60.0,29.85,ESE,117,0.0,0.0,90,0.00,,,0.00,0,weatherlink.com 1.10,2013-05-18 08:34:00,
2013-05-18 03:49:00,62.3,59.0,29.86,ESE,117,0.0,0.0,90,0.00,,,0.00,0,weatherlink.com 1.10,2013-05-18 08:49:00,
2013-05-18 04:04:00,62.0,59.0,29.85,ESE,117,0.0,0.0,91,0.00,,,0.00,0,weatherlink.com 1.10,2013-05-18 09:04:00,
2013-05-18 04:19:00,61.9,59.0,29.86,ESE,117,0.0,0.0,91,0.00,,,0.00,0,weatherlink.com 1.10,2013-05-18 09:19:00,
2013-05-18 04:34:00,61.8,59.0,29.86,ESE,117,2.0,2.0,91,0.00,,,0.00,0,weatherlink.com 1.10,2013-05-18 09:34:00,
2013-05-18 04:49:00,62.0,60.0,29.86,ESE,117,0.0,2.0,92,0.00,,,0.00,0,weatherlink.com 1.10,2013-05-18 09:49:00,
2013-05-18 05:04:00,62.1,60.0,29.85,ESE,117,1.0,5.0,92,0.00,,,0.00,0,weatherlink.com 1.10,2013-05-18 10:04:00,
2013-05-18 05:19:00,62.3,60.0,29.85,ESE,117,0.0,3.0,92,0.00,,,0.00,0,weatherlink.com 1.10,2013-05-18 10:19:00,
2013-05-18 05:34:00,62.7,60.0,29.85,ESE,117,0.0,4.0,91,0.00,,,0.00,0,weatherlink.com 1.10,2013-05-18 10:34:00,
2013-05-18 05:49:00,63.1,61.0,29.85,ESE,117,1.0,3.0,91,0.00,,,0.00,0,weatherlink.com 1.10,2013-05-18 10:49:00,
2013-05-18 06:04:00,63.6,61.0,29.86,ESE,117,0.0,4.0,90,0.00,,,0.00,0,weatherlink.com 1.10,2013-05-18 11:04:00,
2013-05-18 06:19:00,64.3,61.0,29.86,ESE,116,0.0,3.0,89,0.00,,,0.00,9,weatherlink.com 1.10,2013-05-18 11:19:00,
2013-05-18 06:34:00,64.7,62.0,29.86,ESE,116,1.0,3.0,89,0.00,,,0.00,19,weatherlink.com 1.10,2013-05-18 11:34:00,
2013-05-18 06:49:00,65.3,62.0,29.86,ESE,117,3.0,7.0,88,0.00,,,0.00,58,weatherlink.com 1.10,2013-05-18 11:49:00,
2013-05-18 07:04:00,66.3,62.0,29.86,ESE,117,2.0,5.0,87,0.00,,,0.00,77,weatherlink.com 1.10,2013-05-18 12:04:00,
2013-05-18 07:19:00,67.0,63.0,29.86,ESE,117,2.0,3.0,86,0.00,,,0.00,67,weatherlink.com 1.10,2013-05-18 12:19:00,
2013-05-18 07:34:00,67.5,63.0,29.86,ESE,116,2.0,7.0,85,0.00,,,0.00,86,weatherlink.com 1.10,2013-05-18 12:34:00,
2013-05-18 07:49:00,67.9,63.0,29.86,ESE,115,1.0,4.0,85,0.00,,,0.00,114,weatherlink.com 1.10,2013-05-18 12:49:00,
2013-05-18 08:04:00,68.5,64.0,29.86,ESE,115,2.0,5.0,85,0.00,,,0.00,158,weatherlink.com 1.10,2013-05-18 13:04:00,
2013-05-18 08:19:00,69.6,64.0,29.85,ESE,111,2.0,7.0,83,0.00,,,0.00,197,weatherlink.com 1.10,2013-05-18 13:19:00,
2013-05-18 08:34:00,70.5,65.0,29.84,ESE,110,2.0,5.0,82,0.00,,,0.00,341,weatherlink.com 1.10,2013-05-18 13:34:00,
2013-05-18 08:49:00,72.3,65.0,29.84,East,98,2.0,10.0,79,0.00,,,0.00,387,weatherlink.com 1.10,2013-05-18 13:49:00,
2013-05-18 09:04:00,74.2,67.0,29.83,East,96,1.0,8.0,77,0.00,,,0.00,439,weatherlink.com 1.10,2013-05-18 14:04:00,
2013-05-18 09:19:00,75.4,66.0,29.83,ESE,111,1.0,10.0,73,0.00,,,0.00,487,weatherlink.com 1.10,2013-05-18 14:19:00,
2013-05-18 09:34:00,76.8,66.0,29.83,East,87,6.0,10.0,70,0.00,,,0.00,480,weatherlink.com 1.10,2013-05-18 14:34:00,
2013-05-18 09:49:00,77.6,67.0,29.83,ESE,104,1.0,8.0,70,0.00,,,0.00,541,weatherlink.com 1.10,2013-05-18 14:49:00,
2013-05-18 10:05:00,79.2,67.0,29.83,East,94,2.0,10.0,66,0.00,,,0.00,613,weatherlink.com 1.10,2013-05-18 15:05:00,
2013-05-18 10:20:00,79.4,66.0,29.83,East,89,5.0,16.0,64,0.00,,,0.00,642,weatherlink.com 1.10,2013-05-18 15:20:00,
2013-05-18 10:35:00,80.6,67.0,29.82,ESE,105,1.0,9.0,64,0.00,,,0.00,680,weatherlink.com 1.10,2013-05-18 15:35:00,
2013-05-18 10:50:00,80.9,67.0,29.84,NE,53,3.0,10.0,62,0.00,,,0.00,527,weatherlink.com 1.10,2013-05-18 15:50:00,
2013-05-18 11:05:00,80.4,67.0,29.85,East,86,2.0,14.0,64,0.00,,,0.00,411,weatherlink.com 1.10,2013-05-18 16:05:00,
2013-05-18 11:20:00,82.0,68.0,29.83,East,82,6.0,8.0,63,0.00,,,0.00,837,weatherlink.com 1.10,2013-05-18 16:20:00,
2013-05-18 11:35:00,81.6,67.0,29.82,ESE,111,8.0,12.0,62,0.00,,,0.00,831,weatherlink.com 1.10,2013-05-18 16:35:00,
2013-05-18 11:50:00,81.8,67.0,29.82,SSE,166,1.0,15.0,62,0.00,,,0.00,443,weatherlink.com 1.10,2013-05-18 16:50:00,
2013-05-18 12:05:00,81.5,68.0,29.82,SSW,210,7.0,13.0,63,0.00,,,0.00,485,weatherlink.com 1.10,2013-05-18 17:05:00,
2013-05-18 12:20:00,82.0,69.0,29.82,ESE,122,4.0,11.0,64,0.00,,,0.00,742,weatherlink.com 1.10,2013-05-18 17:20:00,
2013-05-18 12:35:00,81.7,68.0,29.82,East,96,2.0,11.0,63,0.00,,,0.00,304,weatherlink.com 1.10,2013-05-18 17:35:00,
2013-05-18 12:50:00,80.9,68.0,29.81,East,86,3.0,10.0,65,0.00,,,0.00,308,weatherlink.com 1.10,2013-05-18 17:50:00,
2013-05-18 13:05:00,81.2,68.0,29.81,East,97,5.0,13.0,65,0.00,,,0.00,371,weatherlink.com 1.10,2013-05-18 18:05:00,
2013-05-18 13:20:00,81.8,69.0,29.81,ESE,103,3.0,11.0,65,0.00,,,0.00,557,weatherlink.com 1.10,2013-05-18 18:20:00,
2013-05-18 13:35:00,83.1,69.0,29.80,ESE,119,8.0,10.0,63,0.00,,,0.00,575,weatherlink.com 1.10,2013-05-18 18:35:00,
2013-05-18 13:50:00,83.4,69.0,29.79,ESE,105,7.0,11.0,62,0.00,,,0.00,1027,weatherlink.com 1.10,2013-05-18 18:50:00,
2013-05-18 14:05:00,84.2,69.0,29.79,ESE,109,3.0,14.0,61,0.00,,,0.00,526,weatherlink.com 1.10,2013-05-18 19:05:00,
2013-05-18 14:20:00,84.0,70.0,29.78,SE,124,2.0,16.0,62,0.00,,,0.00,466,weatherlink.com 1.10,2013-05-18 19:20:00,
2013-05-18 14:35:00,83.2,70.0,29.78,SE,128,4.0,14.0,64,0.00,,,0.00,376,weatherlink.com 1.10,2013-05-18 19:35:00,
2013-05-18 14:50:00,83.0,70.0,29.78,ESE,105,5.0,9.0,65,0.00,,,0.00,696,weatherlink.com 1.10,2013-05-18 19:50:00,
2013-05-18 15:05:00,83.0,70.0,29.78,ESE,117,3.0,10.0,64,0.00,,,0.00,151,weatherlink.com 1.10,2013-05-18 20:05:00,
2013-05-18 15:20:00,82.8,70.0,29.78,ESE,107,3.0,8.0,66,0.00,,,0.00,325,weatherlink.com 1.10,2013-05-18 20:20:00,
2013-05-18 15:35:00,82.8,70.0,29.77,SE,128,3.0,9.0,66,0.00,,,0.00,225,weatherlink.com 1.10,2013-05-18 20:35:00,
2013-05-18 15:50:00,82.3,70.0,29.77,East,84,2.0,9.0,67,0.00,,,0.00,313,weatherlink.com 1.10,2013-05-18 20:50:00,
2013-05-18 16:05:00,82.6,71.0,29.76,SE,132,4.0,11.0,67,0.00,,,0.00,174,weatherlink.com 1.10,2013-05-18 21:05:00,
2013-05-18 16:20:00,82.3,71.0,29.76,SE,124,7.0,11.0,68,0.00,,,0.00,200,weatherlink.com 1.10,2013-05-18 21:20:00,
2013-05-18 16:35:00,82.1,71.0,29.75,ESE,105,0.0,9.0,68,0.00,,,0.00,264,weatherlink.com 1.10,2013-05-18 21:35:00,
2013-05-18 16:50:00,82.3,71.0,29.75,SE,130,3.0,7.0,69,0.00,,,0.00,243,weatherlink.com 1.10,2013-05-18 21:50:00,
2013-05-18 17:05:00,82.3,71.0,29.75,SSE,148,4.0,9.0,68,0.00,,,0.00,250,weatherlink.com 1.10,2013-05-18 22:05:00,
2013-05-18 17:20:00,82.1,71.0,29.75,East,86,2.0,15.0,69,0.00,,,0.00,213,weatherlink.com 1.10,2013-05-18 22:20:00,
2013-05-18 17:35:00,82.0,71.0,29.74,ENE,74,2.0,12.0,69,0.00,,,0.00,232,weatherlink.com 1.10,2013-05-18 22:35:00,
2013-05-18 17:50:00,82.3,71.0,29.72,SE,140,11.0,13.0,68,0.00,,,0.00,204,weatherlink.com 1.10,2013-05-18 22:50:00,
2013-05-18 18:05:00,82.5,71.0,29.71,ESE,118,10.0,13.0,69,0.00,,,0.00,438,weatherlink.com 1.10,2013-05-18 23:05:00,
2013-05-18 18:20:00,82.9,71.0,29.71,SE,136,5.0,14.0,68,0.00,,,0.00,188,weatherlink.com 1.10,2013-05-18 23:20:00,
2013-05-18 18:35:00,82.3,71.0,29.71,ESE,102,12.0,17.0,69,0.00,,,0.00,146,weatherlink.com 1.10,2013-05-18 23:35:00,
2013-05-18 18:50:00,81.3,71.0,29.70,SE,132,9.0,15.0,71,0.00,,,0.00,185,weatherlink.com 1.10,2013-05-18 23:50:00,
2013-05-18 19:05:00,80.9,71.0,29.69,ESE,115,2.0,14.0,72,0.00,,,0.00,93,weatherlink.com 1.10,2013-05-19 00:05:00,
2013-05-18 19:21:00,80.6,71.0,29.68,East,89,3.0,12.0,73,0.00,,,0.00,118,weatherlink.com 1.10,2013-05-19 00:21:00,
2013-05-18 19:36:00,80.4,71.0,29.68,SE,128,5.0,10.0,73,0.00,,,0.00,88,weatherlink.com 1.10,2013-05-19 00:36:00,
2013-05-18 19:51:00,80.1,71.0,29.70,ESE,115,4.0,6.0,74,0.00,,,0.00,46,weatherlink.com 1.10,2013-05-19 00:51:00,
2013-05-18 20:06:00,79.7,71.0,29.68,ESE,105,3.0,7.0,75,0.00,,,0.00,14,weatherlink.com 1.10,2013-05-19 01:06:00,
2013-05-18 20:21:00,79.2,71.0,29.68,ESE,105,4.0,8.0,75,0.00,,,0.00,0,weatherlink.com 1.10,2013-05-19 01:21:00,
2013-05-18 20:36:00,78.7,71.0,29.68,East,101,2.0,11.0,76,0.00,,,0.00,0,weatherlink.com 1.10,2013-05-19 01:36:00,
2013-05-18 20:51:00,78.4,71.0,29.69,ESE,107,3.0,8.0,77,0.00,,,0.00,0,weatherlink.com 1.10,2013-05-19 01:51:00,
2013-05-18 21:06:00,78.4,71.0,29.69,ESE,123,4.0,11.0,77,0.00,,,0.00,0,weatherlink.com 1.10,2013-05-19 02:06:00,
2013-05-18 21:21:00,78.4,71.0,29.69,ENE,70,3.0,10.0,77,0.00,,,0.00,0,weatherlink.com 1.10,2013-05-19 02:21:00,
2013-05-18 21:36:00,78.3,71.0,29.69,ESE,109,4.0,12.0,77,0.00,,,0.00,0,weatherlink.com 1.10,2013-05-19 02:36:00,
2013-05-18 21:51:00,78.0,71.0,29.70,East,80,2.0,7.0,78,0.00,,,0.00,0,weatherlink.com 1.10,2013-05-19 02:51:00,
2013-05-18 22:06:00,77.7,71.0,29.70,ESE,117,5.0,9.0,79,0.00,,,0.00,0,weatherlink.com 1.10,2013-05-19 03:06:00,
2013-05-18 22:21:00,77.4,70.0,29.70,East,89,2.0,9.0,79,0.00,,,0.00,0,weatherlink.com 1.10,2013-05-19 03:21:00,
2013-05-18 22:36:00,77.3,71.0,29.70,ENE,61,5.0,11.0,80,0.00,,,0.00,0,weatherlink.com 1.10,2013-05-19 03:36:00,
2013-05-18 22:51:00,77.3,71.0,29.70,ESE,109,1.0,9.0,81,0.00,,,0.00,0,weatherlink.com 1.10,2013-05-19 03:51:00,
2013-05-18 23:06:00,77.4,71.0,29.70,ESE,105,1.0,10.0,81,0.00,,,0.00,0,weatherlink.com 1.10,2013-05-19 04:06:00,
2013-05-18 23:21:00,77.3,71.0,29.72,ESE,117,2.0,7.0,82,0.00,,,0.00,0,weatherlink.com 1.10,2013-05-19 04:21:00,
2013-05-18 23:36:00,77.0,72.0,29.73,ESE,107,2.0,7.0,83,0.00,,,0.00,0,weatherlink.com 1.10,2013-05-19 04:36:00,
2013-05-18 23:51:00,76.9,71.0,29.73,ESE,121,2.0,5.0,83,0.00,,,0.00,0,weatherlink.com 1.10,2013-05-19 04:51:00,